Time;durP1;ratioP1;P1;durP2;ratioP2;P2;SDS_P1;SDS_P2;PMS_P1;PMS_P2;Temp;Humidity;BMP_temperature;BMP_pressure;BME280_temperature;BME280_humidity;BME280_pressure;Samples;Min_cycle;Max_cycle;Signal;HPM_P1;HPM_P2
2022/04/08 00:01:25;;;;;;;6.47;2.13;;;12.40;99.90;;;;;;4918136;29;20024;-90
2022/04/08 00:03:58;;;;;;;8.70;1.83;;;12.40;99.90;;;;;;4936661;29;20040;-93
2022/04/08 00:06:24;;;;;;;11.77;1.95;;;12.40;99.90;;;;;;4936569;29;20024;-91
2022/04/08 00:08:51;;;;;;;9.02;1.73;;;12.40;99.90;;;;;;4920521;29;20028;-91
2022/04/08 00:11:18;;;;;;;6.05;1.38;;;12.30;99.90;;;;;;4936668;29;20054;-91
2022/04/08 00:13:44;;;;;;;12.40;2.97;;;12.20;99.90;;;;;;4920461;29;20028;-91
2022/04/08 00:16:11;;;;;;;9.98;2.05;;;12.30;99.90;;;;;;4936695;29;20438;-91
2022/04/08 00:18:42;;;;;;;7.38;2.10;;;12.30;99.90;;;;;;4936460;29;20059;-90
2022/04/08 00:21:08;;;;;;;8.02;2.33;;;12.30;99.90;;;;;;4936227;29;20031;-91
2022/04/08 00:23:35;;;;;;;8.65;2.28;;;12.30;99.90;;;;;;4936388;29;20040;-91
2022/04/08 00:26:01;;;;;;;13.38;3.10;;;12.20;99.90;;;;;;4936133;29;20032;-91
2022/04/08 00:28:28;;;;;;;5.85;1.33;;;12.20;99.90;;;;;;4920040;29;20410;-91
2022/04/08 00:30:54;;;;;;;7.95;1.60;;;12.20;99.90;;;;;;4936229;29;20075;-90
2022/04/08 00:33:21;;;;;;;5.53;1.48;;;12.20;99.90;;;;;;4919802;29;20024;-90
2022/04/08 00:35:48;;;;;;;10.00;1.75;;;12.20;99.90;;;;;;4935891;29;20043;-92
2022/04/08 00:38:14;;;;;;;7.03;2.28;;;12.20;99.90;;;;;;4935786;29;20024;-91
2022/04/08 00:40:41;;;;;;;12.23;1.83;;;12.10;99.90;;;;;;4904557;29;20465;-91
2022/04/08 00:43:19;;;;;;;6.45;1.65;;;12.10;99.90;;;;;;4936736;29;20044;-91
2022/04/08 00:45:46;;;;;;;17.17;2.55;;;12.10;99.90;;;;;;4935953;29;20115;-90
2022/04/08 00:48:13;;;;;;;8.25;2.05;;;12.10;99.90;;;;;;4935556;29;20036;-90
2022/04/08 00:50:43;;;;;;;13.05;2.03;;;12.10;99.90;;;;;;4935570;29;20096;-90
2022/04/08 00:53:10;;;;;;;18.10;2.28;;;12.10;99.90;;;;;;4919895;29;20060;-91
2022/04/08 00:55:38;;;;;;;8.80;2.75;;;12.10;99.90;;;;;;4935677;29;20108;-91
2022/04/08 00:58:08;;;;;;;7.22;1.23;;;12.00;99.90;;;;;;4935650;29;20040;-91
2022/04/08 01:00:38;;;;;;;6.68;1.95;;;12.00;99.90;;;;;;4919718;29;20051;-91
2022/04/08 01:03:06;;;;;;;10.13;2.45;;;12.00;99.90;;;;;;4935594;29;20111;-92
2022/04/08 01:05:33;;;;;;;13.57;2.65;;;12.00;99.90;;;;;;4919678;29;20052;-91
2022/04/08 01:08:00;;;;;;;16.92;1.50;;;11.90;99.90;;;;;;4919323;29;20032;-91
2022/04/08 01:10:27;;;;;;;5.55;1.60;;;11.90;99.90;;;;;;4935350;29;20055;-91
2022/04/08 01:12:54;;;;;;;9.23;1.50;;;11.90;99.90;;;;;;4918073;29;20036;-90
2022/04/08 01:15:23;;;;;;;8.18;1.90;;;11.80;99.90;;;;;;4935168;29;20024;-90
2022/04/08 01:17:49;;;;;;;4.70;2.05;;;11.90;99.90;;;;;;4935477;29;20032;-92
2022/04/08 01:20:17;;;;;;;8.77;2.22;;;11.80;99.90;;;;;;4919261;29;20032;-91
2022/04/08 01:22:43;;;;;;;8.10;2.00;;;11.80;99.90;;;;;;4935379;29;20039;-91
2022/04/08 01:25:12;;;;;;;11.25;1.63;;;11.80;99.90;;;;;;4935091;29;20060;-90
2022/04/08 01:27:40;;;;;;;15.70;2.20;;;11.80;99.90;;;;;;4935066;29;20067;-91
2022/04/08 01:30:12;;;;;;;6.13;1.95;;;11.70;99.90;;;;;;4934907;29;20032;-91
2022/04/08 01:32:39;;;;;;;7.88;2.67;;;11.60;99.90;;;;;;4934896;29;20032;-91
2022/04/08 01:35:06;;;;;;;6.38;1.58;;;11.60;99.90;;;;;;4935514;29;20063;-91
2022/04/08 01:37:33;;;;;;;3.75;1.75;;;11.70;99.90;;;;;;4920341;29;20032;-90
2022/04/08 01:40:00;;;;;;;13.98;1.65;;;11.70;99.90;;;;;;4919886;29;20032;-91
2022/04/08 01:42:26;;;;;;;14.95;1.90;;;11.70;99.90;;;;;;4934987;29;20064;-91
2022/04/08 01:44:54;;;;;;;18.25;2.85;;;11.60;99.90;;;;;;4934899;29;20024;-91
2022/04/08 01:47:23;;;;;;;14.23;1.52;;;11.70;99.90;;;;;;4934433;29;20039;-91
2022/04/08 01:49:49;;;;;;;9.05;1.83;;;11.70;99.90;;;;;;4934778;29;20485;-92
2022/04/08 01:52:16;;;;;;;2.00;1.10;;;11.70;99.90;;;;;;4934436;29;20168;-91
2022/04/08 01:54:42;;;;;;;10.95;1.73;;;11.70;99.90;;;;;;4918893;29;20051;-91
2022/04/08 01:57:09;;;;;;;15.05;1.88;;;11.60;99.90;;;;;;4918782;29;20032;-90
2022/04/08 01:59:36;;;;;;;10.13;2.80;;;11.60;99.90;;;;;;4934860;29;20458;-91
2022/04/08 02:02:02;;;;;;;11.30;1.70;;;11.60;99.90;;;;;;4918440;29;20028;-91
2022/04/08 02:04:29;;;;;;;7.88;1.38;;;11.50;99.90;;;;;;4934424;29;20036;-90
2022/04/08 02:06:55;;;;;;;15.20;2.97;;;11.50;99.90;;;;;;4934437;29;20028;-90
2022/04/08 02:09:22;;;;;;;12.93;1.52;;;11.60;99.90;;;;;;4918096;29;20063;-92
2022/04/08 02:11:48;;;;;;;15.15;2.88;;;11.60;99.90;;;;;;4918326;29;20494;-91
2022/04/08 02:14:15;;;;;;;5.10;1.63;;;11.50;99.90;;;;;;4934509;29;20028;-91
2022/04/08 02:16:43;;;;;;;7.63;1.63;;;11.50;99.90;;;;;;4918175;29;20479;-91
2022/04/08 02:19:10;;;;;;;6.43;2.05;;;11.40;99.90;;;;;;4918218;29;20095;-90
2022/04/08 02:21:36;;;;;;;16.88;1.80;;;11.40;99.90;;;;;;4918435;29;20127;-91
2022/04/08 02:24:04;;;;;;;10.77;3.17;;;11.40;99.90;;;;;;4933644;29;20465;-91
2022/04/08 02:26:31;;;;;;;6.35;2.20;;;11.40;99.90;;;;;;4933924;29;20036;-91
2022/04/08 02:28:59;;;;;;;10.82;2.25;;;11.40;99.90;;;;;;4918163;29;20569;-90
2022/04/08 02:31:26;;;;;;;12.65;1.48;;;11.30;99.90;;;;;;4933883;29;20104;-90
2022/04/08 02:33:52;;;;;;;12.43;2.05;;;11.30;99.90;;;;;;4918083;29;20054;-91
2022/04/08 02:36:19;;;;;;;6.70;1.63;;;11.30;99.90;;;;;;4933737;29;20032;-91
2022/04/08 02:38:45;;;;;;;11.93;2.47;;;11.30;99.90;;;;;;4917884;29;20044;-90
2022/04/08 02:41:12;;;;;;;5.55;1.55;;;11.30;99.90;;;;;;4933815;29;20032;-90
2022/04/08 02:43:38;;;;;;;11.80;2.10;;;11.20;99.90;;;;;;4917614;29;20055;-91
2022/04/08 02:46:05;;;;;;;13.43;1.88;;;11.30;99.90;;;;;;4933774;29;20036;-92
2022/04/08 02:48:31;;;;;;;10.07;2.38;;;11.20;99.90;;;;;;4917655;29;20063;-90
2022/04/08 02:50:58;;;;;;;7.95;1.85;;;11.20;99.90;;;;;;4933483;29;20508;-91
2022/04/08 02:53:24;;;;;;;9.10;1.35;;;11.20;99.90;;;;;;4917679;29;20032;-91
2022/04/08 02:55:51;;;;;;;11.68;1.52;;;11.10;99.90;;;;;;4933326;29;20039;-90
2022/04/08 02:58:17;;;;;;;9.05;1.90;;;11.10;99.90;;;;;;4917562;29;20052;-90
2022/04/08 03:00:44;;;;;;;9.93;1.40;;;11.10;99.90;;;;;;4933485;29;20028;-91
2022/04/08 03:03:10;;;;;;;6.38;2.03;;;11.00;99.90;;;;;;4901864;29;20083;-92
2022/04/08 03:05:36;;;;;;;15.93;1.88;;;11.00;99.90;;;;;;4933558;29;20043;-91
2022/04/08 03:08:03;;;;;;;16.00;1.70;;;11.00;99.90;;;;;;4901686;29;20068;-92
2022/04/08 03:10:30;;;;;;;8.60;1.75;;;11.00;99.90;;;;;;4933311;29;20497;-91
2022/04/08 03:12:56;;;;;;;5.57;1.48;;;11.00;99.90;;;;;;4901776;29;20040;-89
2022/04/08 03:15:23;;;;;;;10.38;1.88;;;10.90;99.90;;;;;;4933205;29;20024;-90
2022/04/08 03:17:51;;;;;;;12.00;0.98;;;10.90;99.90;;;;;;4917182;29;20060;-89
2022/04/08 03:20:18;;;;;;;8.50;1.65;;;10.90;99.90;;;;;;4933174;29;20036;-90
2022/04/08 03:22:45;;;;;;;11.68;1.65;;;10.90;99.90;;;;;;4917356;29;20032;-89
2022/04/08 03:25:11;;;;;;;5.50;1.77;;;10.80;99.90;;;;;;4933316;29;20119;-89
2022/04/08 03:27:38;;;;;;;8.25;2.08;;;10.80;99.90;;;;;;4933121;29;20402;-89
2022/04/08 03:30:05;;;;;;;2.72;1.27;;;10.90;99.90;;;;;;4933102;29;20057;-87
2022/04/08 03:32:32;;;;;;;8.13;1.55;;;10.90;99.90;;;;;;4932836;29;20047;-89
2022/04/08 03:34:58;;;;;;;2.55;1.63;;;10.80;99.90;;;;;;4916626;29;20087;-89
2022/04/08 03:37:26;;;;;;;14.77;1.95;;;10.80;99.90;;;;;;4932918;29;20040;-90
2022/04/08 03:39:53;;;;;;;5.63;1.40;;;10.80;99.90;;;;;;4932826;29;20473;-91
2022/04/08 03:42:23;;;;;;;6.38;1.55;;;10.90;99.90;;;;;;4932752;29;20020;-90
2022/04/08 03:44:51;;;;;;;3.28;1.20;;;10.90;99.90;;;;;;4932779;29;20119;-91
2022/04/08 03:47:21;;;;;;;7.93;1.30;;;10.80;99.90;;;;;;4932747;29;20036;-92
2022/04/08 03:49:48;;;;;;;9.15;2.20;;;10.90;99.90;;;;;;4932573;29;20493;-89
2022/04/08 03:52:15;;;;;;;8.77;1.33;;;10.90;99.90;;;;;;4932648;29;20055;-91
2022/04/08 03:54:42;;;;;;;11.30;2.40;;;10.80;99.90;;;;;;4932618;29;20028;-91
2022/04/08 03:57:08;;;;;;;9.63;1.70;;;10.80;99.90;;;;;;4917020;29;20032;-92
2022/04/08 03:59:35;;;;;;;8.90;1.60;;;10.90;99.90;;;;;;4932814;29;20125;-92
2022/04/08 04:02:02;;;;;;;8.10;1.58;;;10.80;99.90;;;;;;4916844;29;20103;-91
2022/04/08 04:04:28;;;;;;;7.47;2.22;;;10.80;99.90;;;;;;4932465;29;20025;-92
2022/04/08 04:06:54;;;;;;;7.32;1.63;;;10.80;99.90;;;;;;4932707;29;20082;-90
2022/04/08 04:09:21;;;;;;;5.28;1.10;;;10.80;99.90;;;;;;4901897;29;20454;-92
2022/04/08 04:11:48;;;;;;;3.85;1.63;;;10.70;99.90;;;;;;4932602;29;20035;-90
2022/04/08 04:14:14;;;;;;;13.50;2.00;;;10.70;99.90;;;;;;4901054;29;20088;-89
2022/04/08 04:16:40;;;;;;;4.15;1.63;;;10.70;99.90;;;;;;4932782;29;20031;-87
2022/04/08 04:19:07;;;;;;;12.10;2.13;;;10.60;99.90;;;;;;4916641;29;20032;-86
2022/04/08 04:21:33;;;;;;;4.05;1.40;;;10.60;99.90;;;;;;4932519;29;20025;-87
2022/04/08 04:24:00;;;;;;;5.25;2.22;;;10.70;99.90;;;;;;4932501;29;20102;-86
2022/04/08 04:26:26;;;;;;;8.88;1.45;;;10.60;99.90;;;;;;4916427;29;20039;-88
2022/04/08 04:28:53;;;;;;;7.13;1.17;;;10.60;99.90;;;;;;4932265;29;20095;-91
2022/04/08 04:31:19;;;;;;;7.35;1.90;;;10.60;99.90;;;;;;4916280;29;20108;-89
2022/04/08 04:33:46;;;;;;;14.98;2.45;;;10.60;99.90;;;;;;4932469;29;20607;-89
2022/04/08 04:36:13;;;;;;;11.32;2.13;;;10.60;99.90;;;;;;4916248;29;20033;-86
2022/04/08 04:38:39;;;;;;;13.07;3.05;;;10.50;99.90;;;;;;4932319;29;20028;-90
2022/04/08 04:41:06;;;;;;;13.07;2.10;;;10.50;99.90;;;;;;4932544;29;20482;-89
2022/04/08 04:43:32;;;;;;;5.65;1.63;;;10.50;99.90;;;;;;4932079;29;20040;-90
2022/04/08 04:45:59;;;;;;;7.82;1.38;;;10.50;99.90;;;;;;4932102;29;20032;-88
2022/04/08 04:48:25;;;;;;;8.30;2.28;;;10.50;99.90;;;;;;4919536;29;20031;-91
2022/04/08 04:50:54;;;;;;;16.25;2.00;;;10.60;99.90;;;;;;4935455;29;20429;-89
2022/04/08 04:53:21;;;;;;;4.78;1.50;;;10.60;99.90;;;;;;4920009;29;20054;-89
2022/04/08 04:55:47;;;;;;;14.38;2.38;;;10.60;99.90;;;;;;4919453;29;20520;-92
2022/04/08 04:58:14;;;;;;;4.28;1.10;;;10.70;99.90;;;;;;4935874;29;20035;-89
2022/04/08 05:00:41;;;;;;;11.77;1.88;;;10.70;99.90;;;;;;4919356;29;20087;-90
2022/04/08 05:03:08;;;;;;;7.15;1.65;;;10.70;99.90;;;;;;4935563;29;20417;-90
2022/04/08 05:05:36;;;;;;;12.52;2.28;;;10.80;99.90;;;;;;4935589;29;20067;-92
2022/04/08 05:08:04;;;;;;;6.57;1.65;;;10.90;99.90;;;;;;4919570;29;20028;-92
2022/04/08 05:10:31;;;;;;;10.52;2.65;;;11.00;99.90;;;;;;4935553;29;20056;-90
2022/04/08 05:13:01;;;;;;;24.50;2.90;;;11.00;99.90;;;;;;4935624;29;20039;-91
2022/04/08 05:15:33;;;;;;;13.07;2.85;;;11.10;99.90;;;;;;4935703;29;20438;-90
2022/04/08 05:18:00;;;;;;;15.10;2.55;;;11.30;99.90;;;;;;4935483;29;20036;-91
2022/04/08 05:20:26;;;;;;;6.53;2.13;;;11.40;99.90;;;;;;4936183;29;20031;-92
2022/04/08 05:22:53;;;;;;;15.85;2.60;;;11.50;99.90;;;;;;4938112;29;20135;-91
2022/04/08 05:25:20;;;;;;;11.60;2.50;;;11.70;99.90;;;;;;4919341;29;20031;-90
2022/04/08 05:27:47;;;;;;;10.68;3.58;;;11.80;99.90;;;;;;4935185;29;20092;-92
2022/04/08 05:30:18;;;;;;;13.93;1.50;;;11.90;99.90;;;;;;4935325;29;20032;-90
2022/04/08 05:32:46;;;;;;;17.23;1.63;;;12.10;99.90;;;;;;4935413;29;20076;-93
2022/04/08 05:35:15;;;;;;;6.45;2.05;;;12.20;99.90;;;;;;4935115;29;20028;-91
2022/04/08 05:37:44;;;;;;;4.88;1.80;;;12.30;99.90;;;;;;4935069;29;20036;-90
2022/04/08 05:40:17;;;;;;;15.00;1.88;;;12.50;99.90;;;;;;4934706;29;20024;-90
2022/04/08 05:42:46;;;;;;;6.18;1.20;;;12.70;99.90;;;;;;4934730;29;20055;-91
2022/04/08 05:45:16;;;;;;;14.68;2.40;;;12.80;99.90;;;;;;4934964;29;20040;-91
2022/04/08 05:47:44;;;;;;;5.13;1.50;;;12.90;99.90;;;;;;4935009;29;20028;-92
2022/04/08 05:50:14;;;;;;;9.30;1.63;;;13.00;99.90;;;;;;4935626;29;20119;-91
2022/04/08 05:52:43;;;;;;;12.25;2.33;;;13.10;99.90;;;;;;4934711;29;20521;-91
2022/04/08 05:55:16;;;;;;;5.63;1.58;;;13.30;99.90;;;;;;4934173;29;20048;-91
2022/04/08 05:57:46;;;;;;;10.48;2.03;;;13.50;99.90;;;;;;4934558;29;20123;-93
2022/04/08 06:00:20;;;;;;;6.30;1.67;;;13.70;99.90;;;;;;4918790;29;20063;-92
2022/04/08 06:02:48;;;;;;;5.75;1.73;;;13.80;99.90;;;;;;4932192;29;20044;-91
2022/04/08 06:05:18;;;;;;;7.90;1.40;;;13.90;99.90;;;;;;4935068;29;20024;-91
2022/04/08 06:07:54;;;;;;;16.65;2.17;;;14.00;99.90;;;;;;4934613;29;20036;-91
2022/04/08 06:10:23;;;;;;;9.40;1.75;;;14.20;99.90;;;;;;4934270;29;20028;-92
2022/04/08 06:12:50;;;;;;;11.82;2.70;;;14.30;99.90;;;;;;4934247;29;20032;-91
2022/04/08 06:15:20;;;;;;;8.95;2.08;;;14.40;99.90;;;;;;4934334;29;20043;-93
2022/04/08 06:17:47;;;;;;;12.30;2.55;;;14.50;99.90;;;;;;4918478;29;20487;-94
2022/04/08 06:20:16;;;;;;;9.73;2.13;;;14.70;99.90;;;;;;4934381;29;20048;-92
2022/04/08 06:22:47;;;;;;;13.48;1.98;;;14.70;99.90;;;;;;4934148;29;20032;-91
2022/04/08 06:25:19;;;;;;;12.55;2.10;;;14.90;99.90;;;;;;4934687;29;20035;-92
2022/04/08 06:27:58;;;;;;;9.80;2.25;;;15.20;99.90;;;;;;4933988;29;20494;-92
2022/04/08 06:30:25;;;;;;;11.20;1.90;;;15.40;99.90;;;;;;4934059;29;20028;-92
2022/04/08 06:32:51;;;;;;;8.57;2.95;;;15.60;99.90;;;;;;4933706;29;20064;-91
2022/04/08 06:35:18;;;;;;;3.55;1.63;;;15.70;99.90;;;;;;4918013;29;20056;-93
2022/04/08 06:37:46;;;;;;;6.55;1.38;;;15.90;99.90;;;;;;4933713;29;20088;-91
2022/04/08 06:40:12;;;;;;;14.00;1.58;;;16.20;99.90;;;;;;4934139;29;20107;-91
2022/04/08 06:42:39;;;;;;;4.93;1.33;;;16.40;99.90;;;;;;4933705;29;20028;-92
2022/04/08 06:45:08;;;;;;;6.72;2.03;;;16.60;99.90;;;;;;4933786;29;20111;-93
2022/04/08 06:47:46;;;;;;;3.72;1.23;;;16.60;99.90;;;;;;4933844;29;20525;-92
2022/04/08 06:50:12;;;;;;;14.23;2.95;;;17.00;99.90;;;;;;4933636;29;20032;-90
2022/04/08 06:52:39;;;;;;;11.35;2.60;;;17.10;99.90;;;;;;4933578;29;20052;-92
2022/04/08 06:55:07;;;;;;;9.43;1.65;;;17.30;99.90;;;;;;4918359;29;20083;-94
2022/04/08 06:57:33;;;;;;;12.07;2.08;;;17.70;99.90;;;;;;4917741;29;20111;-91
2022/04/08 06:59:59;;;;;;;19.38;2.50;;;17.60;99.90;;;;;;4933578;29;20071;-91
2022/04/08 07:02:26;;;;;;;6.65;1.20;;;17.70;99.90;;;;;;4917483;29;20024;-92
2022/04/08 07:04:53;;;;;;;15.27;2.35;;;17.60;99.90;;;;;;4934097;29;20040;-87
2022/04/08 07:07:33;;;;;;;12.82;2.00;;;18.00;99.90;;;;;;4902050;29;20036;-94
2022/04/08 07:10:00;;;;;;;4.82;1.95;;;18.80;99.90;;;;;;4934965;29;20072;-92
2022/04/08 07:12:28;;;;;;;4.55;1.52;;;19.10;99.90;;;;;;4935340;29;20047;-91
2022/04/08 07:14:55;;;;;;;3.63;0.80;;;19.50;99.90;;;;;;4920810;29;20048;-89
2022/04/08 07:17:40;;;;;;;4.07;1.33;;;19.80;99.90;;;;;;4934050;29;20171;-93
2022/04/08 07:20:14;;;;;;;4.43;1.45;;;20.30;99.90;;;;;;4933125;29;20035;-88
2022/04/08 07:22:44;;;;;;;5.28;1.52;;;20.60;99.90;;;;;;4933011;29;20119;-90
2022/04/08 07:25:12;;;;;;;3.20;1.08;;;20.50;99.90;;;;;;4933037;29;20032;-89
2022/04/08 07:27:46;;;;;;;2.97;1.05;;;20.70;99.90;;;;;;4933070;29;20024;-90
2022/04/08 07:30:17;;;;;;;4.00;0.95;;;21.20;99.90;;;;;;4933011;29;20115;-87
2022/04/08 07:32:46;;;;;;;3.28;1.30;;;21.40;99.90;;;;;;4933047;29;20051;-90
2022/04/08 07:35:17;;;;;;;13.40;1.30;;;20.90;99.90;;;;;;4916951;29;20107;-91
2022/04/08 07:37:44;;;;;;;4.10;0.98;;;20.50;99.90;;;;;;4933329;29;20172;-91
2022/04/08 07:40:12;;;;;;;5.63;1.00;;;20.00;99.90;;;;;;4933254;29;20028;-90
2022/04/08 07:42:40;;;;;;;3.78;1.00;;;20.50;99.90;;;;;;4932979;29;20510;-88
2022/04/08 07:45:08;;;;;;;7.63;1.52;;;21.10;99.90;;;;;;4932870;29;20070;-91
2022/04/08 07:47:35;;;;;;;5.72;1.30;;;22.40;99.90;;;;;;4932987;29;20123;-90
2022/04/08 07:50:10;;;;;;;11.13;1.42;;;21.80;99.90;;;;;;4932711;29;20101;-91
2022/04/08 07:52:38;;;;;;;2.85;0.98;;;20.90;99.90;;;;;;4932611;29;20052;-90
2022/04/08 07:55:26;;;;;;;5.10;1.33;;;20.80;99.90;;;;;;4932771;29;20029;-92
2022/04/08 07:57:53;;;;;;;4.30;1.30;;;21.50;99.90;;;;;;4932583;29;20063;-92
2022/04/08 08:00:24;;;;;;;6.00;0.63;;;22.30;99.90;;;;;;4933194;29;20482;-94
2022/04/08 08:02:54;;;;;;;6.40;1.77;;;21.50;99.90;;;;;;4916827;29;20028;-93
2022/04/08 08:05:28;;;;;;;8.95;1.55;;;21.80;99.90;;;;;;4933556;29;20119;-93
2022/04/08 08:08:05;;;;;;;6.07;1.45;;;22.40;99.90;;;;;;4931276;29;20032;-94
2022/04/08 08:10:50;;;;;;;3.70;1.30;;;22.60;99.90;;;;;;4901802;29;20151;-93
2022/04/08 08:13:35;;;;;;;;;;;22.10;99.90;;;;;;4935637;29;20040;-94
2022/04/08 08:16:09;;;;;;;4.05;1.42;;;21.80;99.90;;;;;;4933976;29;19997;-95
2022/04/08 08:18:35;;;;;;;2.03;1.30;;;21.90;99.90;;;;;;4932538;29;20401;-91
2022/04/08 08:21:02;;;;;;;6.38;1.17;;;21.90;99.90;;;;;;4932901;29;20115;-92
2022/04/08 08:23:28;;;;;;;4.43;1.13;;;21.80;99.90;;;;;;4936272;29;20024;-93
2022/04/08 08:25:55;;;;;;;4.22;1.25;;;21.60;99.90;;;;;;4936177;29;20032;-93
2022/04/08 08:28:22;;;;;;;5.45;1.48;;;21.50;99.90;;;;;;4904499;29;20057;-92
2022/04/08 08:30:51;;;;;;;5.45;1.60;;;21.50;99.90;;;;;;4936052;29;20452;-93
2022/04/08 08:33:18;;;;;;;3.80;1.10;;;21.40;99.90;;;;;;4936073;29;20098;-94
2022/04/08 08:35:45;;;;;;;3.75;1.08;;;21.60;99.90;;;;;;4919963;29;20108;-91
2022/04/08 08:38:12;;;;;;;11.88;1.65;;;20.90;99.90;;;;;;4936091;29;20032;-94
2022/04/08 08:40:43;;;;;;;6.40;1.52;;;21.20;99.90;;;;;;4936023;29;20385;-92
2022/04/08 08:43:19;;;;;;;8.70;1.20;;;21.60;99.90;;;;;;4935929;29;20087;-92
2022/04/08 08:45:49;;;;;;;4.03;1.35;;;21.80;99.90;;;;;;4920008;29;20028;-94
2022/04/08 08:48:16;;;;;;;5.80;1.42;;;21.20;99.90;;;;;;4935800;29;20031;-92
2022/04/08 08:50:48;;;;;;;1.60;1.23;;;21.20;99.90;;;;;;4935528;29;20036;-92
2022/04/08 08:53:41;;;;;;;3.83;1.08;;;21.40;99.90;;;;;;4936012;29;20040;-93
2022/04/08 08:56:08;;;;;;;3.35;1.13;;;21.00;99.90;;;;;;4847814;29;20037;-91
2022/04/08 08:58:37;;;;;;;11.23;1.45;;;21.00;99.90;;;;;;4863106;29;20543;-92
2022/04/08 09:01:11;;;;;;;2.70;0.98;;;21.00;99.90;;;;;;4862794;29;20124;-91
2022/04/08 09:03:39;;;;;;;3.15;0.82;;;21.10;99.90;;;;;;4863342;29;20067;-93
2022/04/08 09:06:08;;;;;;;1.80;0.52;;;20.90;99.90;;;;;;4863337;29;20041;-92
2022/04/08 09:08:36;;;;;;;5.28;1.30;;;20.60;99.90;;;;;;4863213;29;20053;-92
2022/04/08 09:11:04;;;;;;;4.07;1.30;;;20.20;99.90;;;;;;4865579;29;20056;-91
2022/04/08 09:13:42;;;;;;;4.18;1.42;;;19.80;99.90;;;;;;4863163;29;20451;-92
2022/04/08 09:16:09;;;;;;;4.05;1.17;;;19.70;99.90;;;;;;4862919;29;20046;-92
2022/04/08 09:18:37;;;;;;;2.78;1.88;;;19.40;99.90;;;;;;4862458;29;20029;-92
2022/04/08 09:21:04;;;;;;;1.80;0.90;;;19.20;99.90;;;;;;4862637;29;20042;-91
2022/04/08 09:23:33;;;;;;;4.93;0.88;;;19.20;99.90;;;;;;4862601;29;20056;-92
2022/04/08 09:26:09;;;;;;;8.30;1.20;;;19.20;99.90;;;;;;4881777;29;20068;-91
2022/04/08 09:28:37;;;;;;;4.95;1.55;;;19.10;99.90;;;;;;4919590;29;20471;-93
2022/04/08 09:31:05;;;;;;;12.85;2.45;;;19.20;99.90;;;;;;4934855;29;20062;-91
2022/04/08 09:33:32;;;;;;;8.80;1.13;;;19.30;99.90;;;;;;4933995;29;20036;-92
2022/04/08 09:35:59;;;;;;;11.50;1.67;;;19.20;99.90;;;;;;4934893;29;20084;-93
2022/04/08 09:38:32;;;;;;;13.80;1.73;;;19.20;99.90;;;;;;4934711;29;20127;-92
2022/04/08 09:41:10;;;;;;;8.50;0.77;;;19.30;99.90;;;;;;4934910;29;20087;-91
2022/04/08 09:43:39;;;;;;;4.20;1.50;;;19.30;99.90;;;;;;4934720;29;20063;-91
2022/04/08 09:46:21;;;;;;;4.68;1.38;;;19.40;99.90;;;;;;4934937;29;20043;-93
2022/04/08 09:48:48;;;;;;;2.63;1.10;;;19.40;99.90;;;;;;4934589;29;20024;-93
2022/04/08 09:51:20;;;;;;;4.15;1.10;;;19.30;99.90;;;;;;4934612;29;20137;-91
2022/04/08 09:53:58;;;;;;;3.35;0.90;;;19.20;99.90;;;;;;4934550;29;20406;-91
2022/04/08 09:56:27;;;;;;;5.80;1.52;;;19.30;99.90;;;;;;4934608;29;20032;-91
2022/04/08 09:59:11;;;;;;;5.72;0.95;;;19.40;99.90;;;;;;4934157;29;20088;-92
2022/04/08 10:07:17;;;;;;;2.92;1.15;;;19.50;99.90;;;;;;5242610;23;20084;-92
2022/04/08 10:10:11;;;;;;;7.45;1.55;;;19.50;99.90;;;;;;4876905;29;20044;-92
2022/04/08 10:13:15;;;;;;;3.60;0.67;;;19.50;99.90;;;;;;4791969;29;20043;-92
2022/04/08 10:15:52;;;;;;;11.45;2.33;;;19.60;99.90;;;;;;4792064;29;20031;-92
2022/04/08 10:18:19;;;;;;;2.42;0.63;;;19.60;99.90;;;;;;4777087;29;20077;-92
2022/04/08 10:20:45;;;;;;;4.05;1.75;;;19.60;99.90;;;;;;4791761;29;20045;-92
2022/04/08 10:23:15;;;;;;;5.18;1.73;;;19.60;99.90;;;;;;4791887;29;20077;-91
2022/04/08 10:25:44;;;;;;;1.58;0.50;;;19.60;99.90;;;;;;4792274;29;20463;-92
2022/04/08 10:28:12;;;;;;;6.07;1.42;;;19.60;99.90;;;;;;4791570;29;20041;-92
2022/04/08 10:30:46;;;;;;;6.15;1.10;;;19.50;99.90;;;;;;4791650;29;20127;-92
2022/04/08 10:33:22;;;;;;;6.30;1.58;;;19.50;99.90;;;;;;4793635;29;20070;-93
2022/04/08 10:35:59;;;;;;;7.72;1.23;;;19.50;99.90;;;;;;4791257;29;20043;-91
2022/04/08 10:38:35;;;;;;;4.65;1.13;;;19.50;99.90;;;;;;4791897;29;20236;-93
2022/04/08 10:41:02;;;;;;;3.03;1.33;;;19.40;99.90;;;;;;4809387;29;20070;-93
2022/04/08 10:43:42;;;;;;;6.28;1.92;;;19.50;99.90;;;;;;4809594;29;20054;-93
2022/04/08 10:46:09;;;;;;;3.40;0.98;;;19.60;99.90;;;;;;4794312;29;20050;-93
2022/04/08 10:48:35;;;;;;;6.70;1.20;;;19.60;99.90;;;;;;4815695;29;20068;-93
2022/04/08 10:51:21;;;;;;;6.85;1.33;;;19.60;99.90;;;;;;4864922;29;20045;-92
2022/04/08 10:54:01;;;;;;;5.75;0.95;;;19.70;99.90;;;;;;4865152;29;20025;-92
2022/04/08 10:56:34;;;;;;;9.55;1.52;;;19.80;99.90;;;;;;4849809;29;20033;-91
2022/04/08 10:59:00;;;;;;;4.93;1.58;;;19.80;99.90;;;;;;4864832;29;20033;-90
2022/04/08 11:01:27;;;;;;;7.63;1.50;;;19.90;99.90;;;;;;4849280;29;20025;-93
2022/04/08 11:04:00;;;;;;;2.33;0.88;;;20.00;99.90;;;;;;4864828;29;20029;-91
2022/04/08 11:06:28;;;;;;;4.07;1.27;;;20.20;99.90;;;;;;4864859;29;20053;-93
2022/04/08 11:08:55;;;;;;;2.90;0.93;;;20.40;99.90;;;;;;4849820;29;20092;-93
2022/04/08 11:11:32;;;;;;;5.50;0.80;;;20.40;99.90;;;;;;4864865;29;20112;-93
2022/04/08 11:14:00;;;;;;;1.77;0.80;;;20.40;99.90;;;;;;4850078;29;20039;-92
2022/04/08 11:16:32;;;;;;;5.47;1.33;;;20.30;99.90;;;;;;4873046;29;20048;-91
2022/04/08 11:18:59;;;;;;;3.70;0.70;;;20.00;99.90;;;;;;4865820;29;20107;-94
2022/04/08 11:21:28;;;;;;;2.80;1.42;;;19.90;99.90;;;;;;4848971;29;20036;-91
2022/04/08 11:24:03;;;;;;;3.88;1.10;;;19.80;99.90;;;;;;4866164;29;20029;-91
2022/04/08 11:26:30;;;;;;;8.20;1.63;;;19.80;99.90;;;;;;4849248;29;20487;-93
2022/04/08 11:29:07;;;;;;;5.00;1.35;;;19.80;99.90;;;;;;4848918;29;20497;-93
2022/04/08 11:31:34;;;;;;;4.72;0.85;;;19.90;99.90;;;;;;4864158;29;20074;-91
2022/04/08 11:34:05;;;;;;;2.72;0.93;;;19.90;99.90;;;;;;4864304;29;20035;-92
2022/04/08 11:36:32;;;;;;;2.72;0.75;;;20.00;99.90;;;;;;4864308;29;20044;-93
2022/04/08 11:38:58;;;;;;;9.90;1.73;;;20.10;99.90;;;;;;4851145;29;20113;-94
2022/04/08 11:41:27;;;;;;;3.95;1.42;;;20.10;99.90;;;;;;4851702;29;20398;-92
2022/04/08 11:43:54;;;;;;;3.92;1.00;;;20.20;99.90;;;;;;4865689;29;20033;-92
2022/04/08 11:46:20;;;;;;;3.22;1.67;;;20.30;99.90;;;;;;4852119;29;20487;-93
2022/04/08 11:48:47;;;;;;;4.10;0.80;;;20.50;99.90;;;;;;4867917;29;20037;-91
2022/04/08 11:51:17;;;;;;;6.20;1.50;;;20.70;99.90;;;;;;4869416;29;20092;-92
2022/04/08 11:53:54;;;;;;;3.33;1.00;;;20.70;99.90;;;;;;4871707;29;20036;-93
2022/04/08 11:56:53;;;;;;;5.22;1.65;;;20.50;99.90;;;;;;4871835;29;20364;-92
2022/04/08 11:59:22;;;;;;;3.08;0.82;;;20.50;99.90;;;;;;4868970;29;20078;-92
2022/04/08 12:01:57;;;;;;;5.07;1.00;;;20.50;99.90;;;;;;4870707;29;20043;-92
2022/04/08 12:04:23;;;;;;;5.30;1.10;;;20.30;99.90;;;;;;4900633;23;20064;-92
2022/04/08 12:06:50;;;;;;;5.10;1.65;;;20.40;99.90;;;;;;4898033;29;20406;-92
2022/04/08 12:09:18;;;;;;;4.35;1.80;;;20.40;99.90;;;;;;4879376;29;20037;-93
2022/04/08 12:11:46;;;;;;;9.13;1.00;;;20.20;99.90;;;;;;4863965;29;20399;-92
2022/04/08 12:14:14;;;;;;;3.05;1.00;;;19.90;99.90;;;;;;4864436;29;20399;-91
2022/04/08 12:16:44;;;;;;;5.88;0.80;;;19.90;99.90;;;;;;4856467;29;20029;-91
2022/04/08 12:19:11;;;;;;;2.85;0.70;;;19.90;99.90;;;;;;4863967;29;20033;-92
2022/04/08 12:21:39;;;;;;;1.75;0.68;;;19.90;99.90;;;;;;4863689;29;20033;-94
2022/04/08 12:24:10;;;;;;;2.20;1.38;;;19.90;99.90;;;;;;4863853;29;20060;-92
2022/04/08 12:26:39;;;;;;;2.78;0.85;;;19.90;99.90;;;;;;4864569;29;20040;-93
2022/04/08 12:29:14;;;;;;;4.47;1.52;;;20.00;99.90;;;;;;4863036;29;20100;-92
2022/04/08 12:31:57;;;;;;;2.10;0.70;;;19.80;99.90;;;;;;4846178;29;20033;-92
2022/04/08 12:34:26;;;;;;;2.03;0.65;;;19.90;99.90;;;;;;4847130;29;20102;-92
2022/04/08 12:36:56;;;;;;;5.20;1.55;;;19.90;99.90;;;;;;4863190;29;20082;-93
2022/04/08 12:46:11;;;;;;;3.28;1.25;;;20.00;99.90;;;;;;4863870;29;20142;-94
2022/04/08 12:48:45;;;;;;;2.67;1.17;;;20.00;99.90;;;;;;4861175;29;20034;-92
2022/04/08 12:51:36;;;;;;;1.50;0.77;;;20.10;99.90;;;;;;4843712;29;20070;-93
2022/04/08 12:54:03;;;;;;;3.15;0.85;;;20.20;99.90;;;;;;4843956;29;20045;-92
2022/04/08 12:56:35;;;;;;;4.85;0.80;;;20.40;99.90;;;;;;4844686;29;20464;-95
2022/04/08 12:59:24;;;;;;;9.73;0.75;;;20.50;99.90;;;;;;4843714;29;20062;-93
2022/04/08 13:02:05;;;;;;;5.13;1.08;;;20.60;99.90;;;;;;4884947;23;20052;-92
2022/04/08 13:04:35;;;;;;;3.03;1.17;;;20.60;99.90;;;;;;4900821;29;20029;-92
2022/04/08 13:07:23;;;;;;;;;;;;;;;;;;;;;
2022/04/08 13:10:19;;;;;;;0.93;0.68;;;20.80;99.90;;;;;;4910887;29;20041;-92